sensor_id;sensor_type;location;lat;lon;timestamp;temperature;humidity
59977;DHT22;45837;51.076;3.578;2023-12-20T00:01:50;18.50;59.00
59977;DHT22;45837;51.076;3.578;2023-12-20T00:04:16;18.50;59.00
59977;DHT22;45837;51.076;3.578;2023-12-20T00:06:42;18.50;59.00
59977;DHT22;45837;51.076;3.578;2023-12-20T00:09:07;18.50;58.90
59977;DHT22;45837;51.076;3.578;2023-12-20T00:11:33;18.50;59.00
59977;DHT22;45837;51.076;3.578;2023-12-20T00:13:59;18.50;59.00
59977;DHT22;45837;51.076;3.578;2023-12-20T00:16:25;18.50;59.00
59977;DHT22;45837;51.076;3.578;2023-12-20T00:18:50;18.50;58.90
59977;DHT22;45837;51.076;3.578;2023-12-20T00:21:16;18.50;59.00
59977;DHT22;45837;51.076;3.578;2023-12-20T00:23:42;18.40;58.90
59977;DHT22;45837;51.076;3.578;2023-12-20T00:26:08;18.50;59.00
59977;DHT22;45837;51.076;3.578;2023-12-20T00:28:33;18.40;59.00
59977;DHT22;45837;51.076;3.578;2023-12-20T00:30:59;18.40;58.90
59977;DHT22;45837;51.076;3.578;2023-12-20T00:33:25;18.40;59.00
59977;DHT22;45837;51.076;3.578;2023-12-20T00:35:51;18.40;58.90
59977;DHT22;45837;51.076;3.578;2023-12-20T00:38:17;18.40;58.90
59977;DHT22;45837;51.076;3.578;2023-12-20T00:40:42;18.40;58.90
59977;DHT22;45837;51.076;3.578;2023-12-20T00:43:08;18.40;58.90
59977;DHT22;45837;51.076;3.578;2023-12-20T00:45:34;18.40;58.90
59977;DHT22;45837;51.076;3.578;2023-12-20T00:48:00;18.40;58.90
59977;DHT22;45837;51.076;3.578;2023-12-20T00:50:25;18.40;58.90
59977;DHT22;45837;51.076;3.578;2023-12-20T00:52:51;18.40;58.90
59977;DHT22;45837;51.076;3.578;2023-12-20T00:55:17;18.40;58.90
59977;DHT22;45837;51.076;3.578;2023-12-20T00:57:43;18.40;58.90
59977;DHT22;45837;51.076;3.578;2023-12-20T01:00:09;18.30;58.90
59977;DHT22;45837;51.076;3.578;2023-12-20T01:02:35;18.30;58.80
59977;DHT22;45837;51.076;3.578;2023-12-20T01:05:01;18.30;58.80
59977;DHT22;45837;51.076;3.578;2023-12-20T01:07:27;18.30;58.80
59977;DHT22;45837;51.076;3.578;2023-12-20T01:09:53;18.30;58.80
59977;DHT22;45837;51.076;3.578;2023-12-20T01:12:19;18.30;58.80
59977;DHT22;45837;51.076;3.578;2023-12-20T01:14:46;18.20;58.80
59977;DHT22;45837;51.076;3.578;2023-12-20T01:17:12;18.30;58.80
59977;DHT22;45837;51.076;3.578;2023-12-20T01:19:38;18.30;58.80
59977;DHT22;45837;51.076;3.578;2023-12-20T01:22:04;18.30;58.90
59977;DHT22;45837;51.076;3.578;2023-12-20T01:24:30;18.30;58.90
59977;DHT22;45837;51.076;3.578;2023-12-20T01:26:55;18.20;58.80
59977;DHT22;45837;51.076;3.578;2023-12-20T01:29:21;18.20;58.80
59977;DHT22;45837;51.076;3.578;2023-12-20T01:31:47;18.30;58.80
59977;DHT22;45837;51.076;3.578;2023-12-20T01:34:13;18.20;58.80
59977;DHT22;45837;51.076;3.578;2023-12-20T01:36:39;18.20;58.80
59977;DHT22;45837;51.076;3.578;2023-12-20T01:39:04;18.20;58.70
59977;DHT22;45837;51.076;3.578;2023-12-20T01:41:30;18.20;59.30
59977;DHT22;45837;51.076;3.578;2023-12-20T01:43:56;18.20;58.70
59977;DHT22;45837;51.076;3.578;2023-12-20T01:46:22;18.20;58.80
59977;DHT22;45837;51.076;3.578;2023-12-20T01:48:48;18.20;58.70
59977;DHT22;45837;51.076;3.578;2023-12-20T01:51:14;18.20;58.70
59977;DHT22;45837;51.076;3.578;2023-12-20T01:53:41;18.20;58.60
59977;DHT22;45837;51.076;3.578;2023-12-20T01:56:08;18.20;58.60
59977;DHT22;45837;51.076;3.578;2023-12-20T01:58:36;18.20;58.60
59977;DHT22;45837;51.076;3.578;2023-12-20T02:01:04;18.10;58.50
59977;DHT22;45837;51.076;3.578;2023-12-20T02:03:30;18.10;58.60
59977;DHT22;45837;51.076;3.578;2023-12-20T02:05:56;18.20;58.60
59977;DHT22;45837;51.076;3.578;2023-12-20T02:08:22;18.10;58.50
59977;DHT22;45837;51.076;3.578;2023-12-20T02:10:48;18.10;58.60
59977;DHT22;45837;51.076;3.578;2023-12-20T02:13:14;18.10;58.60
59977;DHT22;45837;51.076;3.578;2023-12-20T02:15:40;18.10;58.50
59977;DHT22;45837;51.076;3.578;2023-12-20T02:18:08;18.10;58.50
59977;DHT22;45837;51.076;3.578;2023-12-20T02:20:33;18.10;58.50
59977;DHT22;45837;51.076;3.578;2023-12-20T02:22:59;18.10;58.50
59977;DHT22;45837;51.076;3.578;2023-12-20T02:25:25;18.00;58.50
59977;DHT22;45837;51.076;3.578;2023-12-20T02:27:51;18.00;58.50
59977;DHT22;45837;51.076;3.578;2023-12-20T02:30:17;18.00;58.50
59977;DHT22;45837;51.076;3.578;2023-12-20T02:32:43;18.10;58.70
59977;DHT22;45837;51.076;3.578;2023-12-20T02:35:09;18.00;58.40
59977;DHT22;45837;51.076;3.578;2023-12-20T02:37:35;18.00;58.50
59977;DHT22;45837;51.076;3.578;2023-12-20T02:40:00;18.00;58.50
59977;DHT22;45837;51.076;3.578;2023-12-20T02:42:26;18.00;58.50
59977;DHT22;45837;51.076;3.578;2023-12-20T02:44:52;18.00;58.50
59977;DHT22;45837;51.076;3.578;2023-12-20T02:47:18;18.00;58.50
59977;DHT22;45837;51.076;3.578;2023-12-20T02:49:43;18.00;58.50
59977;DHT22;45837;51.076;3.578;2023-12-20T02:52:09;18.00;58.50
59977;DHT22;45837;51.076;3.578;2023-12-20T02:54:35;18.00;58.50
59977;DHT22;45837;51.076;3.578;2023-12-20T02:57:01;18.00;58.40
59977;DHT22;45837;51.076;3.578;2023-12-20T02:59:27;18.00;58.40
59977;DHT22;45837;51.076;3.578;2023-12-20T03:01:52;18.00;58.40
59977;DHT22;45837;51.076;3.578;2023-12-20T03:04:18;17.90;58.40
59977;DHT22;45837;51.076;3.578;2023-12-20T03:06:44;18.00;58.40
59977;DHT22;45837;51.076;3.578;2023-12-20T03:09:10;18.00;58.50
59977;DHT22;45837;51.076;3.578;2023-12-20T03:11:35;17.90;58.40
59977;DHT22;45837;51.076;3.578;2023-12-20T03:14:01;17.90;58.40
59977;DHT22;45837;51.076;3.578;2023-12-20T03:16:27;17.90;58.40
59977;DHT22;45837;51.076;3.578;2023-12-20T03:18:53;18.00;58.30
59977;DHT22;45837;51.076;3.578;2023-12-20T03:21:19;17.90;58.40
59977;DHT22;45837;51.076;3.578;2023-12-20T03:23:45;17.90;58.40
59977;DHT22;45837;51.076;3.578;2023-12-20T03:26:11;17.90;58.30
59977;DHT22;45837;51.076;3.578;2023-12-20T03:28:36;17.90;58.30
59977;DHT22;45837;51.076;3.578;2023-12-20T03:31:03;17.90;58.30
59977;DHT22;45837;51.076;3.578;2023-12-20T03:33:29;17.90;58.30
59977;DHT22;45837;51.076;3.578;2023-12-20T03:35:55;17.90;58.30
59977;DHT22;45837;51.076;3.578;2023-12-20T03:38:21;17.90;58.50
59977;DHT22;45837;51.076;3.578;2023-12-20T03:40:50;17.90;58.30
59977;DHT22;45837;51.076;3.578;2023-12-20T03:43:16;17.90;58.30
59977;DHT22;45837;51.076;3.578;2023-12-20T03:45:42;17.90;58.30
59977;DHT22;45837;51.076;3.578;2023-12-20T03:48:08;17.90;58.30
59977;DHT22;45837;51.076;3.578;2023-12-20T03:50:34;17.90;58.20
59977;DHT22;45837;51.076;3.578;2023-12-20T03:53:00;17.90;58.20
59977;DHT22;45837;51.076;3.578;2023-12-20T03:55:26;17.80;58.20
59977;DHT22;45837;51.076;3.578;2023-12-20T03:57:51;17.90;58.30
59977;DHT22;45837;51.076;3.578;2023-12-20T04:00:17;17.90;58.20
59977;DHT22;45837;51.076;3.578;2023-12-20T04:02:43;17.80;58.20
59977;DHT22;45837;51.076;3.578;2023-12-20T04:05:09;17.90;58.30
59977;DHT22;45837;51.076;3.578;2023-12-20T04:07:36;17.80;58.10
59977;DHT22;45837;51.076;3.578;2023-12-20T04:10:04;17.90;58.20
59977;DHT22;45837;51.076;3.578;2023-12-20T04:12:30;17.80;58.10
59977;DHT22;45837;51.076;3.578;2023-12-20T04:14:57;17.80;58.20
59977;DHT22;45837;51.076;3.578;2023-12-20T04:17:22;17.80;58.10
59977;DHT22;45837;51.076;3.578;2023-12-20T04:19:51;17.80;58.20
59977;DHT22;45837;51.076;3.578;2023-12-20T04:22:17;17.80;58.20
59977;DHT22;45837;51.076;3.578;2023-12-20T04:24:43;17.80;58.70
59977;DHT22;45837;51.076;3.578;2023-12-20T04:27:09;17.80;58.20
59977;DHT22;45837;51.076;3.578;2023-12-20T04:29:35;17.80;58.20
59977;DHT22;45837;51.076;3.578;2023-12-20T04:32:01;17.80;58.20
59977;DHT22;45837;51.076;3.578;2023-12-20T04:34:27;17.80;58.20
59977;DHT22;45837;51.076;3.578;2023-12-20T04:36:53;17.80;58.30
59977;DHT22;45837;51.076;3.578;2023-12-20T04:39:19;17.80;58.20
59977;DHT22;45837;51.076;3.578;2023-12-20T04:41:44;17.70;58.10
59977;DHT22;45837;51.076;3.578;2023-12-20T04:44:10;17.80;58.20
59977;DHT22;45837;51.076;3.578;2023-12-20T04:46:36;17.80;58.20
59977;DHT22;45837;51.076;3.578;2023-12-20T04:49:02;17.80;58.10
59977;DHT22;45837;51.076;3.578;2023-12-20T04:51:28;17.70;58.10
59977;DHT22;45837;51.076;3.578;2023-12-20T04:53:53;17.70;58.10
59977;DHT22;45837;51.076;3.578;2023-12-20T04:56:19;17.70;58.10
59977;DHT22;45837;51.076;3.578;2023-12-20T04:58:45;17.70;58.10
59977;DHT22;45837;51.076;3.578;2023-12-20T05:01:12;17.70;58.10
59977;DHT22;45837;51.076;3.578;2023-12-20T05:03:38;17.70;58.00
59977;DHT22;45837;51.076;3.578;2023-12-20T05:06:04;17.70;58.00
59977;DHT22;45837;51.076;3.578;2023-12-20T05:08:30;17.70;58.00
59977;DHT22;45837;51.076;3.578;2023-12-20T05:10:56;17.70;58.10
59977;DHT22;45837;51.076;3.578;2023-12-20T05:13:22;17.70;58.10
59977;DHT22;45837;51.076;3.578;2023-12-20T05:15:48;17.70;58.00
59977;DHT22;45837;51.076;3.578;2023-12-20T05:18:14;17.70;58.00
59977;DHT22;45837;51.076;3.578;2023-12-20T05:20:40;17.70;58.00
59977;DHT22;45837;51.076;3.578;2023-12-20T05:23:06;17.70;58.00
59977;DHT22;45837;51.076;3.578;2023-12-20T05:25:32;17.70;57.90
59977;DHT22;45837;51.076;3.578;2023-12-20T05:27:58;17.70;58.00
59977;DHT22;45837;51.076;3.578;2023-12-20T05:30:23;17.60;58.10
59977;DHT22;45837;51.076;3.578;2023-12-20T05:32:49;17.60;58.30
59977;DHT22;45837;51.076;3.578;2023-12-20T05:35:15;17.60;58.60
59977;DHT22;45837;51.076;3.578;2023-12-20T05:37:41;17.60;58.70
59977;DHT22;45837;51.076;3.578;2023-12-20T05:40:07;17.60;58.80
59977;DHT22;45837;51.076;3.578;2023-12-20T05:42:37;17.70;59.30
59977;DHT22;45837;51.076;3.578;2023-12-20T05:45:04;17.70;59.30
59977;DHT22;45837;51.076;3.578;2023-12-20T05:47:30;17.70;59.20
59977;DHT22;45837;51.076;3.578;2023-12-20T05:49:55;17.70;59.40
59977;DHT22;45837;51.076;3.578;2023-12-20T05:52:21;17.80;59.30
59977;DHT22;45837;51.076;3.578;2023-12-20T05:54:47;17.80;59.30
59977;DHT22;45837;51.076;3.578;2023-12-20T05:57:13;17.90;59.30
59977;DHT22;45837;51.076;3.578;2023-12-20T05:59:39;17.90;59.20
59977;DHT22;45837;51.076;3.578;2023-12-20T06:02:05;17.90;59.10
59977;DHT22;45837;51.076;3.578;2023-12-20T06:04:31;18.00;59.10
59977;DHT22;45837;51.076;3.578;2023-12-20T06:06:57;18.10;59.10
59977;DHT22;45837;51.076;3.578;2023-12-20T06:09:23;18.20;59.00
59977;DHT22;45837;51.076;3.578;2023-12-20T06:11:49;18.20;58.90
59977;DHT22;45837;51.076;3.578;2023-12-20T06:14:15;18.30;58.80
59977;DHT22;45837;51.076;3.578;2023-12-20T06:16:40;18.40;58.70
59977;DHT22;45837;51.076;3.578;2023-12-20T06:19:06;18.50;58.50
59977;DHT22;45837;51.076;3.578;2023-12-20T06:21:32;18.60;58.70
59977;DHT22;45837;51.076;3.578;2023-12-20T06:24:01;18.70;58.70
59977;DHT22;45837;51.076;3.578;2023-12-20T06:26:27;18.80;58.60
59977;DHT22;45837;51.076;3.578;2023-12-20T06:28:52;18.90;58.60
59977;DHT22;45837;51.076;3.578;2023-12-20T06:31:18;19.00;58.50
59977;DHT22;45837;51.076;3.578;2023-12-20T06:33:44;19.00;58.50
59977;DHT22;45837;51.076;3.578;2023-12-20T06:36:13;19.10;58.50
59977;DHT22;45837;51.076;3.578;2023-12-20T06:38:39;19.20;58.50
59977;DHT22;45837;51.076;3.578;2023-12-20T06:41:05;19.30;58.30
59977;DHT22;45837;51.076;3.578;2023-12-20T06:43:31;19.30;58.30
59977;DHT22;45837;51.076;3.578;2023-12-20T06:45:58;19.40;58.20
59977;DHT22;45837;51.076;3.578;2023-12-20T06:48:24;19.50;58.00
59977;DHT22;45837;51.076;3.578;2023-12-20T06:50:50;19.60;58.00
59977;DHT22;45837;51.076;3.578;2023-12-20T06:53:15;19.60;57.90
59977;DHT22;45837;51.076;3.578;2023-12-20T06:55:42;19.70;58.10
59977;DHT22;45837;51.076;3.578;2023-12-20T06:58:08;19.60;58.20
59977;DHT22;45837;51.076;3.578;2023-12-20T07:00:34;19.70;58.10
59977;DHT22;45837;51.076;3.578;2023-12-20T07:03:00;19.70;58.10
59977;DHT22;45837;51.076;3.578;2023-12-20T07:05:26;19.70;57.90
59977;DHT22;45837;51.076;3.578;2023-12-20T07:07:52;19.60;57.40
59977;DHT22;45837;51.076;3.578;2023-12-20T07:10:18;19.60;57.30
59977;DHT22;45837;51.076;3.578;2023-12-20T07:12:44;19.60;57.10
59977;DHT22;45837;51.076;3.578;2023-12-20T07:15:10;19.60;57.00
59977;DHT22;45837;51.076;3.578;2023-12-20T07:17:36;19.50;56.70
59977;DHT22;45837;51.076;3.578;2023-12-20T07:20:02;19.50;56.70
59977;DHT22;45837;51.076;3.578;2023-12-20T07:22:33;19.40;56.60
59977;DHT22;45837;51.076;3.578;2023-12-20T07:24:59;19.40;56.50
59977;DHT22;45837;51.076;3.578;2023-12-20T07:27:25;19.40;56.40
59977;DHT22;45837;51.076;3.578;2023-12-20T07:29:51;19.30;56.20
59977;DHT22;45837;51.076;3.578;2023-12-20T07:32:17;19.30;56.20
59977;DHT22;45837;51.076;3.578;2023-12-20T07:34:43;19.20;56.10
59977;DHT22;45837;51.076;3.578;2023-12-20T07:37:09;19.20;55.90
59977;DHT22;45837;51.076;3.578;2023-12-20T07:39:42;19.10;55.80
59977;DHT22;45837;51.076;3.578;2023-12-20T07:42:08;19.10;55.70
59977;DHT22;45837;51.076;3.578;2023-12-20T07:44:34;19.10;55.60
59977;DHT22;45837;51.076;3.578;2023-12-20T07:47:02;19.10;55.70
59977;DHT22;45837;51.076;3.578;2023-12-20T07:49:27;19.10;55.50
59977;DHT22;45837;51.076;3.578;2023-12-20T07:51:53;19.10;55.30
59977;DHT22;45837;51.076;3.578;2023-12-20T07:54:19;19.00;55.20
59977;DHT22;45837;51.076;3.578;2023-12-20T07:56:46;19.00;55.10
59977;DHT22;45837;51.076;3.578;2023-12-20T07:59:13;19.00;54.90
59977;DHT22;45837;51.076;3.578;2023-12-20T08:01:38;19.00;54.80
59977;DHT22;45837;51.076;3.578;2023-12-20T08:04:04;19.10;54.70
59977;DHT22;45837;51.076;3.578;2023-12-20T08:06:30;19.10;54.50
59977;DHT22;45837;51.076;3.578;2023-12-20T08:08:56;19.10;54.30
59977;DHT22;45837;51.076;3.578;2023-12-20T08:11:21;19.10;54.10
59977;DHT22;45837;51.076;3.578;2023-12-20T08:13:47;19.20;53.60
59977;DHT22;45837;51.076;3.578;2023-12-20T08:16:13;19.20;52.00
59977;DHT22;45837;51.076;3.578;2023-12-20T08:18:41;19.20;51.40
59977;DHT22;45837;51.076;3.578;2023-12-20T08:21:07;19.20;51.00
59977;DHT22;45837;51.076;3.578;2023-12-20T08:23:34;19.20;50.70
59977;DHT22;45837;51.076;3.578;2023-12-20T08:26:08;19.10;50.50
59977;DHT22;45837;51.076;3.578;2023-12-20T08:28:34;19.10;50.40
59977;DHT22;45837;51.076;3.578;2023-12-20T08:31:00;19.10;50.20
59977;DHT22;45837;51.076;3.578;2023-12-20T08:33:26;19.10;50.10
59977;DHT22;45837;51.076;3.578;2023-12-20T08:35:52;19.00;50.30
59977;DHT22;45837;51.076;3.578;2023-12-20T08:38:18;19.00;50.50
59977;DHT22;45837;51.076;3.578;2023-12-20T08:40:44;19.00;51.50
59977;DHT22;45837;51.076;3.578;2023-12-20T08:43:10;19.00;51.20
59977;DHT22;45837;51.076;3.578;2023-12-20T08:45:36;18.90;51.60
59977;DHT22;45837;51.076;3.578;2023-12-20T08:48:02;18.90;51.80
59977;DHT22;45837;51.076;3.578;2023-12-20T08:50:29;18.90;52.10
59977;DHT22;45837;51.076;3.578;2023-12-20T08:52:54;18.90;52.50
59977;DHT22;45837;51.076;3.578;2023-12-20T08:55:20;19.00;52.50
59977;DHT22;45837;51.076;3.578;2023-12-20T08:57:46;19.00;52.60
59977;DHT22;45837;51.076;3.578;2023-12-20T09:00:13;19.00;53.00
59977;DHT22;45837;51.076;3.578;2023-12-20T09:02:39;19.10;52.70
59977;DHT22;45837;51.076;3.578;2023-12-20T09:05:05;19.10;53.20
59977;DHT22;45837;51.076;3.578;2023-12-20T09:07:31;19.10;52.90
59977;DHT22;45837;51.076;3.578;2023-12-20T09:09:58;19.20;53.00
59977;DHT22;45837;51.076;3.578;2023-12-20T09:12:24;19.20;52.90
59977;DHT22;45837;51.076;3.578;2023-12-20T09:14:51;19.30;52.90
59977;DHT22;45837;51.076;3.578;2023-12-20T09:17:18;19.40;52.80
59977;DHT22;45837;51.076;3.578;2023-12-20T09:19:44;19.40;52.90
59977;DHT22;45837;51.076;3.578;2023-12-20T09:22:11;19.50;52.90
59977;DHT22;45837;51.076;3.578;2023-12-20T09:24:37;19.40;52.80
59977;DHT22;45837;51.076;3.578;2023-12-20T09:27:04;19.60;53.20
59977;DHT22;45837;51.076;3.578;2023-12-20T09:29:31;19.80;53.60
59977;DHT22;45837;51.076;3.578;2023-12-20T09:31:56;19.90;53.80
59977;DHT22;45837;51.076;3.578;2023-12-20T09:34:23;19.90;53.80
59977;DHT22;45837;51.076;3.578;2023-12-20T09:36:49;20.00;54.10
59977;DHT22;45837;51.076;3.578;2023-12-20T09:39:18;20.10;54.20
59977;DHT22;45837;51.076;3.578;2023-12-20T09:42:06;20.20;54.30
59977;DHT22;45837;51.076;3.578;2023-12-20T09:44:34;20.30;52.80
59977;DHT22;45837;51.076;3.578;2023-12-20T09:47:03;20.30;52.00
59977;DHT22;45837;51.076;3.578;2023-12-20T09:49:30;20.40;52.10
59977;DHT22;45837;51.076;3.578;2023-12-20T09:51:56;20.40;52.30
59977;DHT22;45837;51.076;3.578;2023-12-20T09:54:23;20.40;52.50
59977;DHT22;45837;51.076;3.578;2023-12-20T09:56:49;20.40;52.80
59977;DHT22;45837;51.076;3.578;2023-12-20T09:59:15;20.40;53.10
59977;DHT22;45837;51.076;3.578;2023-12-20T10:01:41;20.40;53.50
59977;DHT22;45837;51.076;3.578;2023-12-20T10:04:12;20.30;53.70
59977;DHT22;45837;51.076;3.578;2023-12-20T10:06:42;20.30;53.90
59977;DHT22;45837;51.076;3.578;2023-12-20T10:09:09;20.30;54.00
59977;DHT22;45837;51.076;3.578;2023-12-20T10:11:36;20.40;54.30
59977;DHT22;45837;51.076;3.578;2023-12-20T10:14:06;20.40;54.10
59977;DHT22;45837;51.076;3.578;2023-12-20T10:16:33;20.40;54.00
59977;DHT22;45837;51.076;3.578;2023-12-20T10:18:59;20.40;54.00
59977;DHT22;45837;51.076;3.578;2023-12-20T10:21:26;20.40;53.80
59977;DHT22;45837;51.076;3.578;2023-12-20T10:23:56;20.30;53.40
59977;DHT22;45837;51.076;3.578;2023-12-20T10:26:24;20.30;53.10
59977;DHT22;45837;51.076;3.578;2023-12-20T10:28:52;20.30;52.80
59977;DHT22;45837;51.076;3.578;2023-12-20T10:31:32;20.30;52.60
59977;DHT22;45837;51.076;3.578;2023-12-20T10:34:00;20.30;52.30
59977;DHT22;45837;51.076;3.578;2023-12-20T10:36:27;20.30;51.90
59977;DHT22;45837;51.076;3.578;2023-12-20T10:38:54;20.30;51.60
59977;DHT22;45837;51.076;3.578;2023-12-20T10:41:29;20.30;51.70
59977;DHT22;45837;51.076;3.578;2023-12-20T10:44:03;20.40;52.00
59977;DHT22;45837;51.076;3.578;2023-12-20T10:46:31;20.50;52.20
59977;DHT22;45837;51.076;3.578;2023-12-20T10:48:58;20.50;51.50
59977;DHT22;45837;51.076;3.578;2023-12-20T10:51:24;20.60;51.00
59977;DHT22;45837;51.076;3.578;2023-12-20T10:53:56;20.60;50.70
59977;DHT22;45837;51.076;3.578;2023-12-20T10:56:22;20.60;50.50
59977;DHT22;45837;51.076;3.578;2023-12-20T10:58:52;20.60;50.20
59977;DHT22;45837;51.076;3.578;2023-12-20T11:01:19;20.60;50.00
59977;DHT22;45837;51.076;3.578;2023-12-20T11:03:53;20.60;49.80
59977;DHT22;45837;51.076;3.578;2023-12-20T11:06:43;20.60;49.70
59977;DHT22;45837;51.076;3.578;2023-12-20T11:09:22;20.60;49.60
59977;DHT22;45837;51.076;3.578;2023-12-20T11:12:11;20.50;49.50
59977;DHT22;45837;51.076;3.578;2023-12-20T11:17:11;20.50;49.20
59977;DHT22;45837;51.076;3.578;2023-12-20T11:22:27;20.40;48.80
59977;DHT22;45837;51.076;3.578;2023-12-20T11:24:54;20.30;48.60
59977;DHT22;45837;51.076;3.578;2023-12-20T11:27:23;20.20;49.00
59977;DHT22;45837;51.076;3.578;2023-12-20T11:29:56;20.20;49.00
59977;DHT22;45837;51.076;3.578;2023-12-20T11:34:59;20.10;49.00
59977;DHT22;45837;51.076;3.578;2023-12-20T11:37:35;20.10;48.90
59977;DHT22;45837;51.076;3.578;2023-12-20T11:40:11;20.10;48.80
59977;DHT22;45837;51.076;3.578;2023-12-20T11:42:41;20.10;50.20
59977;DHT22;45837;51.076;3.578;2023-12-20T11:45:14;20.10;51.10
59977;DHT22;45837;51.076;3.578;2023-12-20T11:47:46;20.00;51.30
59977;DHT22;45837;51.076;3.578;2023-12-20T11:50:12;20.00;52.10
59977;DHT22;45837;51.076;3.578;2023-12-20T11:52:38;19.90;52.30
59977;DHT22;45837;51.076;3.578;2023-12-20T11:55:04;19.90;52.70
59977;DHT22;45837;51.076;3.578;2023-12-20T11:57:31;19.90;53.00
59977;DHT22;45837;51.076;3.578;2023-12-20T11:59:57;20.00;53.40
59977;DHT22;45837;51.076;3.578;2023-12-20T12:02:23;20.00;53.90
59977;DHT22;45837;51.076;3.578;2023-12-20T12:04:49;20.10;54.20
59977;DHT22;45837;51.076;3.578;2023-12-20T12:07:16;20.10;54.40
59977;DHT22;45837;51.076;3.578;2023-12-20T12:09:43;20.20;54.50
59977;DHT22;45837;51.076;3.578;2023-12-20T12:12:10;20.30;54.70
59977;DHT22;45837;51.076;3.578;2023-12-20T12:14:37;20.40;54.60
59977;DHT22;45837;51.076;3.578;2023-12-20T12:17:13;20.40;54.60
59977;DHT22;45837;51.076;3.578;2023-12-20T12:19:40;20.50;54.70
59977;DHT22;45837;51.076;3.578;2023-12-20T12:24:43;20.60;54.90
59977;DHT22;45837;51.076;3.578;2023-12-20T12:27:10;20.70;55.20
59977;DHT22;45837;51.076;3.578;2023-12-20T12:29:37;20.70;55.20
59977;DHT22;45837;51.076;3.578;2023-12-20T12:32:07;20.70;55.00
59977;DHT22;45837;51.076;3.578;2023-12-20T12:34:34;20.70;55.00
59977;DHT22;45837;51.076;3.578;2023-12-20T12:37:00;20.70;54.90
59977;DHT22;45837;51.076;3.578;2023-12-20T12:39:26;20.70;55.10
59977;DHT22;45837;51.076;3.578;2023-12-20T12:41:53;20.70;55.20
59977;DHT22;45837;51.076;3.578;2023-12-20T12:44:19;20.70;55.40
59977;DHT22;45837;51.076;3.578;2023-12-20T12:46:46;20.60;55.50
59977;DHT22;45837;51.076;3.578;2023-12-20T12:49:13;20.60;55.60
59977;DHT22;45837;51.076;3.578;2023-12-20T12:51:38;20.50;55.60
59977;DHT22;45837;51.076;3.578;2023-12-20T12:54:04;20.50;55.80
59977;DHT22;45837;51.076;3.578;2023-12-20T12:56:30;20.50;56.00
59977;DHT22;45837;51.076;3.578;2023-12-20T12:58:56;20.50;56.00
59977;DHT22;45837;51.076;3.578;2023-12-20T13:01:22;20.50;56.10
59977;DHT22;45837;51.076;3.578;2023-12-20T13:03:48;20.50;56.10
59977;DHT22;45837;51.076;3.578;2023-12-20T13:06:14;20.60;56.10
59977;DHT22;45837;51.076;3.578;2023-12-20T13:08:40;20.60;56.20
59977;DHT22;45837;51.076;3.578;2023-12-20T13:11:05;20.60;56.10
59977;DHT22;45837;51.076;3.578;2023-12-20T13:13:31;20.60;56.10
59977;DHT22;45837;51.076;3.578;2023-12-20T13:15:57;20.70;56.20
59977;DHT22;45837;51.076;3.578;2023-12-20T13:18:23;20.70;56.30
59977;DHT22;45837;51.076;3.578;2023-12-20T13:20:49;20.70;56.20
59977;DHT22;45837;51.076;3.578;2023-12-20T13:23:15;20.70;56.40
59977;DHT22;45837;51.076;3.578;2023-12-20T13:25:44;20.70;56.40
59977;DHT22;45837;51.076;3.578;2023-12-20T13:28:12;20.70;56.50
59977;DHT22;45837;51.076;3.578;2023-12-20T13:30:39;20.70;56.60
59977;DHT22;45837;51.076;3.578;2023-12-20T13:33:05;20.70;56.60
59977;DHT22;45837;51.076;3.578;2023-12-20T13:35:32;20.70;56.70
59977;DHT22;45837;51.076;3.578;2023-12-20T13:37:59;20.70;56.80
59977;DHT22;45837;51.076;3.578;2023-12-20T13:40:25;20.70;56.80
59977;DHT22;45837;51.076;3.578;2023-12-20T13:42:50;20.60;56.80
59977;DHT22;45837;51.076;3.578;2023-12-20T13:45:16;20.60;57.00
59977;DHT22;45837;51.076;3.578;2023-12-20T13:47:42;20.60;57.10
59977;DHT22;45837;51.076;3.578;2023-12-20T13:50:08;20.70;57.20
59977;DHT22;45837;51.076;3.578;2023-12-20T13:52:35;20.70;57.40
59977;DHT22;45837;51.076;3.578;2023-12-20T13:55:01;20.80;57.30
59977;DHT22;45837;51.076;3.578;2023-12-20T13:57:27;20.80;57.30
59977;DHT22;45837;51.076;3.578;2023-12-20T13:59:55;20.80;57.30
59977;DHT22;45837;51.076;3.578;2023-12-20T14:02:23;20.80;57.50
59977;DHT22;45837;51.076;3.578;2023-12-20T14:04:49;20.80;57.40
59977;DHT22;45837;51.076;3.578;2023-12-20T14:07:15;20.80;57.40
59977;DHT22;45837;51.076;3.578;2023-12-20T14:09:41;20.80;57.50
59977;DHT22;45837;51.076;3.578;2023-12-20T14:12:11;20.90;57.30
59977;DHT22;45837;51.076;3.578;2023-12-20T14:14:37;20.90;57.40
59977;DHT22;45837;51.076;3.578;2023-12-20T14:17:03;20.90;57.20
59977;DHT22;45837;51.076;3.578;2023-12-20T14:19:32;21.00;57.20
59977;DHT22;45837;51.076;3.578;2023-12-20T14:21:58;20.90;57.30
59977;DHT22;45837;51.076;3.578;2023-12-20T14:24:27;20.90;57.50
59977;DHT22;45837;51.076;3.578;2023-12-20T14:26:53;20.90;57.10
59977;DHT22;45837;51.076;3.578;2023-12-20T14:29:19;20.90;57.10
59977;DHT22;45837;51.076;3.578;2023-12-20T14:31:45;20.90;57.10
59977;DHT22;45837;51.076;3.578;2023-12-20T14:34:11;20.90;57.10
59977;DHT22;45837;51.076;3.578;2023-12-20T14:36:37;20.90;57.10
59977;DHT22;45837;51.076;3.578;2023-12-20T14:39:03;20.90;57.50
59977;DHT22;45837;51.076;3.578;2023-12-20T14:41:30;20.90;58.10
59977;DHT22;45837;51.076;3.578;2023-12-20T14:43:56;20.90;58.30
59977;DHT22;45837;51.076;3.578;2023-12-20T14:46:22;20.90;58.30
59977;DHT22;45837;51.076;3.578;2023-12-20T14:48:48;20.80;57.80
59977;DHT22;45837;51.076;3.578;2023-12-20T14:51:15;20.90;57.50
59977;DHT22;45837;51.076;3.578;2023-12-20T14:53:41;20.90;57.30
59977;DHT22;45837;51.076;3.578;2023-12-20T14:56:08;20.90;57.40
59977;DHT22;45837;51.076;3.578;2023-12-20T14:58:34;20.90;57.70
59977;DHT22;45837;51.076;3.578;2023-12-20T15:01:01;20.90;57.50
59977;DHT22;45837;51.076;3.578;2023-12-20T15:03:27;21.00;57.60
59977;DHT22;45837;51.076;3.578;2023-12-20T15:05:54;20.90;57.40
59977;DHT22;45837;51.076;3.578;2023-12-20T15:08:20;21.00;57.40
59977;DHT22;45837;51.076;3.578;2023-12-20T15:10:47;20.90;57.30
59977;DHT22;45837;51.076;3.578;2023-12-20T15:13:12;21.00;57.40
59977;DHT22;45837;51.076;3.578;2023-12-20T15:15:38;20.90;57.40
59977;DHT22;45837;51.076;3.578;2023-12-20T15:18:04;20.90;57.40
59977;DHT22;45837;51.076;3.578;2023-12-20T15:20:30;20.90;57.50
59977;DHT22;45837;51.076;3.578;2023-12-20T15:22:59;20.90;57.60
59977;DHT22;45837;51.076;3.578;2023-12-20T15:25:30;20.90;57.50
59977;DHT22;45837;51.076;3.578;2023-12-20T15:27:56;20.80;57.60
59977;DHT22;45837;51.076;3.578;2023-12-20T15:30:22;20.80;57.70
59977;DHT22;45837;51.076;3.578;2023-12-20T15:32:50;20.90;57.80
59977;DHT22;45837;51.076;3.578;2023-12-20T15:35:16;20.90;57.70
59977;DHT22;45837;51.076;3.578;2023-12-20T15:37:42;20.90;57.80